createdAt,value
2023-04-11T00:01:23.715Z,3.50
2023-04-11T00:03:50.933Z,2.97
2023-04-11T00:06:17.879Z,5.33
2023-04-11T00:08:44.697Z,3.07
2023-04-11T00:11:11.450Z,3.13
2023-04-11T00:13:38.434Z,3.17
2023-04-11T00:16:08.804Z,2.57
2023-04-11T00:18:37.183Z,3.03
2023-04-11T00:21:04.252Z,3.00
2023-04-11T00:23:30.995Z,4.53
2023-04-11T00:25:58.787Z,3.27
2023-04-11T00:28:25.516Z,3.87
2023-04-11T00:30:52.220Z,4.23
2023-04-11T00:33:18.988Z,4.67
2023-04-11T00:35:45.992Z,4.77
2023-04-11T00:38:12.789Z,4.10
2023-04-11T00:40:40.197Z,3.10
2023-04-11T00:43:06.887Z,4.70
2023-04-11T00:45:33.792Z,8.20
2023-04-11T00:48:01.153Z,4.70
2023-04-11T00:50:28.555Z,6.23
2023-04-11T00:52:56.800Z,4.43
2023-04-11T00:55:24.103Z,5.40
2023-04-11T00:57:54.213Z,5.97
2023-04-11T01:00:21.080Z,3.33
2023-04-11T01:02:47.899Z,8.13
2023-04-11T01:05:15.428Z,4.83
2023-04-11T01:07:45.691Z,7.10
2023-04-11T01:10:12.884Z,3.10
2023-04-11T01:12:40.490Z,7.00
2023-04-11T01:15:07.540Z,4.47
2023-04-11T01:17:34.380Z,8.23
2023-04-11T01:20:01.347Z,5.57
2023-04-11T01:22:29.185Z,4.93
2023-04-11T01:24:56.390Z,5.80
2023-04-11T01:27:23.364Z,5.07
2023-04-11T01:29:51.056Z,6.37
2023-04-11T01:32:17.947Z,6.73
2023-04-11T01:34:46.950Z,4.17
2023-04-11T01:37:13.863Z,6.17
2023-04-11T01:39:40.962Z,3.03
2023-04-11T01:42:08.956Z,6.27
2023-04-11T01:44:36.844Z,4.50
2023-04-11T01:47:04.037Z,6.23
2023-04-11T01:49:30.881Z,4.47
2023-04-11T01:51:57.751Z,4.53
2023-04-11T01:54:24.626Z,3.47
2023-04-11T01:56:54.929Z,3.17
2023-04-11T01:59:21.762Z,3.67
2023-04-11T02:01:48.604Z,4.03
2023-04-11T02:04:15.548Z,3.90
2023-04-11T02:06:42.416Z,4.07
2023-04-11T02:09:09.280Z,2.50
2023-04-11T02:11:36.230Z,2.60
2023-04-11T02:14:03.901Z,2.03
2023-04-11T02:16:33.628Z,0.97
2023-04-11T02:19:00.422Z,2.10
2023-04-11T02:21:28.204Z,2.77
2023-04-11T02:23:57.857Z,1.67
2023-04-11T02:26:26.805Z,1.87
2023-04-11T02:28:55.898Z,2.30
2023-04-11T02:31:22.887Z,2.63
2023-04-11T02:33:49.621Z,1.30
2023-04-11T02:36:18.677Z,3.43
2023-04-11T02:38:45.380Z,2.97
2023-04-11T02:41:12.015Z,1.70
2023-04-11T02:43:38.719Z,1.67
2023-04-11T02:46:12.786Z,1.53
2023-04-11T02:48:42.063Z,2.77
2023-04-11T02:51:09.671Z,3.70
2023-04-11T02:53:36.488Z,1.97
2023-04-11T02:56:03.229Z,1.80
2023-04-11T02:58:30.209Z,3.77
2023-04-11T03:01:03.270Z,3.07
2023-04-11T03:03:30.069Z,3.07
2023-04-11T03:05:57.046Z,1.13
2023-04-11T03:08:26.168Z,2.33
2023-04-11T03:10:53.866Z,4.60
2023-04-11T03:13:22.785Z,2.03
2023-04-11T03:15:49.571Z,2.03
2023-04-11T03:18:16.832Z,2.57
2023-04-11T03:20:46.861Z,2.27
2023-04-11T03:23:15.551Z,1.83
2023-04-11T03:25:44.632Z,2.87
2023-04-11T03:28:12.695Z,2.87
2023-04-11T03:30:42.540Z,2.60
2023-04-11T03:33:12.139Z,2.97
2023-04-11T03:35:39.605Z,2.67
2023-04-11T03:38:06.358Z,4.00
2023-04-11T03:40:33.201Z,3.63
2023-04-11T03:43:10.594Z,3.97
2023-04-11T03:45:37.402Z,3.00
2023-04-11T03:48:09.126Z,3.80
2023-04-11T03:50:49.519Z,4.27
2023-04-11T03:53:20.514Z,4.17
2023-04-11T03:55:49.357Z,4.40
2023-04-11T03:58:18.196Z,6.07
2023-04-11T04:00:44.959Z,2.27
2023-04-11T04:03:13.762Z,3.97
2023-04-11T04:05:41.790Z,4.03
2023-04-11T04:08:11.188Z,6.13
2023-04-11T04:10:42.349Z,6.10
2023-04-11T04:13:10.633Z,3.77
2023-04-11T04:15:45.649Z,4.87
2023-04-11T04:18:14.031Z,6.90
2023-04-11T04:20:43.972Z,4.60
2023-04-11T04:23:13.991Z,6.90
2023-04-11T04:26:13.115Z,5.47
2023-04-11T04:28:46.231Z,5.17
2023-04-11T04:31:22.318Z,5.27
2023-04-11T04:33:50.559Z,6.87
2023-04-11T04:36:24.925Z,7.17
2023-04-11T04:38:52.084Z,8.47
2023-04-11T04:41:22.863Z,9.43
2023-04-11T04:43:58.233Z,10.50
2023-04-11T04:46:43.631Z,7.30
2023-04-11T04:49:10.906Z,7.50
2023-04-11T04:51:38.600Z,8.73
2023-04-11T04:54:05.956Z,5.47
2023-04-11T04:56:33.053Z,5.00
2023-04-11T04:58:59.851Z,2.73
2023-04-11T05:01:28.414Z,8.07
2023-04-11T05:03:59.598Z,7.57
2023-04-11T05:06:44.088Z,6.13
2023-04-11T05:09:11.271Z,7.97
2023-04-11T05:11:38.612Z,7.33
2023-04-11T05:14:08.452Z,10.10
2023-04-11T05:16:35.491Z,6.30
2023-04-11T05:19:02.348Z,8.80
2023-04-11T05:21:31.408Z,6.03
2023-04-11T05:23:58.314Z,10.50
2023-04-11T05:26:25.499Z,7.87
2023-04-11T05:28:52.256Z,6.70
2023-04-11T05:31:21.897Z,7.87
2023-04-11T05:33:49.141Z,10.93
2023-04-11T05:36:16.162Z,7.87
2023-04-11T05:38:44.220Z,8.27
2023-04-11T05:41:11.780Z,11.23
2023-04-11T05:43:38.871Z,8.17
2023-04-11T05:46:07.805Z,8.13
2023-04-11T05:48:34.695Z,8.67
2023-04-11T05:51:01.768Z,9.10
2023-04-11T05:53:29.100Z,10.30
2023-04-11T05:55:56.138Z,8.83
2023-04-11T05:58:23.542Z,8.57
2023-04-11T06:00:50.816Z,7.83
2023-04-11T06:03:17.684Z,9.30
2023-04-11T06:05:44.527Z,11.23
2023-04-11T06:08:11.996Z,7.77
2023-04-11T06:10:38.710Z,10.43
2023-04-11T06:13:05.402Z,9.23
2023-04-11T06:15:32.284Z,8.77
2023-04-11T06:17:58.988Z,10.90
2023-04-11T06:20:25.778Z,6.50
2023-04-11T06:22:52.819Z,9.60
2023-04-11T06:25:20.644Z,8.37
2023-04-11T06:27:48.032Z,6.20
2023-04-11T06:30:15.262Z,9.47
2023-04-11T06:32:42.297Z,11.07
2023-04-11T06:35:09.552Z,9.30
2023-04-11T06:37:36.283Z,8.00
2023-04-11T06:40:05.368Z,8.00
2023-04-11T06:42:32.401Z,7.77
2023-04-11T06:44:59.055Z,8.47
2023-04-11T06:47:25.903Z,7.77
2023-04-11T06:49:52.713Z,7.93
2023-04-11T06:52:19.419Z,8.13
2023-04-11T06:54:48.087Z,9.30
2023-04-11T06:57:14.908Z,7.00
2023-04-11T06:59:41.599Z,8.90
2023-04-11T07:02:08.355Z,7.43
2023-04-11T07:04:35.261Z,9.93
2023-04-11T07:07:02.146Z,7.87
2023-04-11T07:09:28.968Z,7.63
2023-04-11T07:11:56.212Z,8.47
2023-04-11T07:14:25.049Z,10.07
2023-04-11T07:16:51.814Z,8.60
2023-04-11T07:19:18.581Z,10.53
2023-04-11T07:21:48.832Z,11.40
2023-04-11T07:24:18.757Z,12.43
2023-04-11T07:26:46.411Z,11.77
2023-04-11T07:29:14.960Z,15.77
2023-04-11T07:31:42.010Z,8.13
2023-04-11T07:34:08.747Z,5.70
2023-04-11T07:36:35.950Z,8.27
2023-04-11T07:39:04.336Z,8.73
2023-04-11T07:41:31.179Z,9.00
2023-04-11T07:43:58.180Z,6.53
2023-04-11T07:46:25.045Z,6.20
2023-04-11T07:48:51.978Z,9.00
2023-04-11T07:51:18.866Z,12.93
2023-04-11T07:53:45.646Z,8.17
2023-04-11T07:56:12.396Z,4.80
2023-04-11T07:58:39.076Z,12.30
2023-04-11T08:01:09.062Z,12.33
2023-04-11T08:03:36.273Z,13.73
2023-04-11T08:06:03.158Z,11.50
2023-04-11T08:08:29.896Z,15.67
2023-04-11T08:10:56.577Z,9.77
2023-04-11T08:13:23.257Z,13.00
2023-04-11T08:15:50.037Z,10.77
2023-04-11T08:18:21.340Z,11.13
2023-04-11T08:20:48.786Z,9.47
2023-04-11T08:23:15.690Z,10.63
2023-04-11T08:25:42.506Z,11.53
2023-04-11T08:28:10.622Z,9.63
2023-04-11T08:30:37.406Z,8.63
2023-04-11T08:33:04.323Z,11.10
2023-04-11T08:35:31.122Z,10.27
2023-04-11T08:37:57.997Z,9.53
2023-04-11T08:40:26.896Z,9.77
2023-04-11T08:43:09.924Z,9.87
2023-04-11T08:45:36.670Z,7.03
2023-04-11T08:48:03.566Z,10.00
2023-04-11T08:50:30.590Z,7.33
2023-04-11T08:53:02.298Z,13.97
2023-04-11T08:55:30.022Z,13.10
2023-04-11T08:57:59.301Z,12.30
2023-04-11T09:00:28.763Z,6.47
2023-04-11T09:03:06.544Z,3.97
2023-04-11T09:05:38.614Z,5.30
2023-04-11T09:08:10.907Z,8.03
2023-04-11T09:10:39.196Z,5.37
2023-04-11T09:13:26.720Z,7.67
2023-04-11T09:16:05.868Z,5.97
2023-04-11T09:18:39.905Z,8.90
2023-04-11T09:21:08.829Z,7.07
2023-04-11T09:23:36.377Z,6.40
2023-04-11T09:26:06.076Z,5.57
2023-04-11T09:28:44.514Z,9.10
2023-04-11T09:31:14.394Z,6.97
2023-04-11T09:33:52.353Z,7.83
2023-04-11T09:36:21.504Z,9.23
2023-04-11T09:38:48.422Z,7.63
2023-04-11T09:41:15.590Z,8.17
2023-04-11T09:43:53.219Z,7.97
2023-04-11T09:46:21.257Z,13.50
2023-04-11T09:48:53.047Z,7.47
2023-04-11T09:51:34.944Z,6.73
2023-04-11T09:54:08.552Z,9.23
2023-04-11T09:56:36.930Z,10.60
2023-04-11T09:59:05.268Z,10.33
2023-04-11T10:01:32.414Z,11.53
2023-04-11T10:04:00.915Z,4.93
2023-04-11T10:06:38.555Z,6.83
2023-04-11T10:09:08.339Z,6.50
2023-04-11T10:11:35.909Z,11.13
2023-04-11T10:14:02.903Z,9.07
2023-04-11T10:16:32.476Z,9.07
2023-04-11T10:19:00.454Z,7.93
2023-04-11T10:21:30.246Z,7.63
2023-04-11T10:24:18.040Z,7.73
2023-04-11T10:26:55.048Z,6.53
2023-04-11T10:29:28.004Z,7.43
2023-04-11T10:32:19.266Z,6.00
2023-04-11T10:34:55.594Z,4.83
2023-04-11T10:37:35.234Z,5.17
2023-04-11T10:40:01.886Z,6.47
2023-04-11T10:42:30.408Z,5.57
2023-04-11T10:45:22.111Z,4.57
2023-04-11T10:47:51.720Z,7.40
2023-04-11T10:50:30.208Z,5.57
2023-04-11T10:53:00.838Z,6.13
2023-04-11T10:55:29.084Z,4.50
2023-04-11T10:58:22.573Z,5.77
2023-04-11T11:00:52.823Z,3.67
2023-04-11T11:03:31.438Z,7.63
2023-04-11T11:05:59.471Z,3.37
2023-04-11T11:08:38.089Z,6.17
2023-04-11T11:11:06.816Z,6.17
2023-04-11T11:13:40.806Z,5.18
2023-04-11T11:16:09.636Z,5.53
2023-04-11T11:18:37.276Z,5.50
2023-04-11T11:21:05.804Z,6.63
2023-04-11T11:23:36.102Z,4.23
2023-04-11T11:26:03.455Z,6.50
2023-04-11T11:28:30.118Z,5.07
2023-04-11T11:30:57.525Z,5.13
2023-04-11T11:33:28.662Z,5.70
2023-04-11T11:35:57.696Z,5.40
2023-04-11T11:38:29.284Z,6.03
2023-04-11T11:40:57.306Z,6.43
2023-04-11T11:43:27.331Z,8.97
2023-04-11T11:46:10.986Z,8.00
2023-04-11T11:48:37.955Z,7.10
2023-04-11T11:51:05.045Z,6.27
2023-04-11T11:53:32.244Z,8.60
2023-04-11T11:55:59.452Z,5.13
2023-04-11T11:58:27.228Z,5.47
2023-04-11T12:00:54.233Z,5.17
2023-04-11T12:03:24.238Z,5.73
2023-04-11T12:05:55.162Z,4.20
2023-04-11T12:08:22.267Z,5.63
2023-04-11T12:10:50.526Z,6.53
2023-04-11T12:13:26.586Z,7.07
2023-04-11T12:15:56.881Z,6.00
2023-04-11T12:18:25.090Z,6.20
2023-04-11T12:20:52.553Z,4.83
2023-04-11T12:23:19.720Z,6.43
2023-04-11T12:25:46.953Z,4.50
2023-04-11T12:28:14.235Z,6.07
2023-04-11T12:30:41.042Z,5.77
2023-04-11T12:33:07.824Z,6.67
2023-04-11T12:35:34.863Z,4.63
2023-04-11T12:38:01.792Z,7.57
2023-04-11T12:40:29.744Z,7.40
2023-04-11T12:42:57.635Z,4.83
2023-04-11T12:45:25.681Z,4.93
2023-04-11T12:47:53.757Z,4.93
2023-04-11T12:50:23.297Z,5.53
2023-04-11T12:52:50.287Z,4.80
2023-04-11T12:55:17.072Z,3.93
2023-04-11T12:57:43.954Z,5.30
2023-04-11T13:00:12.770Z,3.93
2023-04-11T13:02:44.074Z,4.67
2023-04-11T13:05:14.240Z,5.37
2023-04-11T13:07:42.225Z,5.17
2023-04-11T13:10:09.504Z,6.40
2023-04-11T13:12:41.863Z,5.90
2023-04-11T13:15:11.921Z,6.93
2023-04-11T13:17:39.204Z,5.57
2023-04-11T13:20:07.826Z,7.07
2023-04-11T13:22:34.565Z,4.73
2023-04-11T13:25:01.403Z,6.37
2023-04-11T13:27:28.215Z,5.23
2023-04-11T13:29:54.984Z,3.50
2023-04-11T13:32:21.757Z,6.57
2023-04-11T13:34:48.555Z,5.43
2023-04-11T13:37:15.297Z,4.40
2023-04-11T13:39:42.690Z,5.97
2023-04-11T13:42:10.155Z,5.03
2023-04-11T13:44:36.957Z,5.33
2023-04-11T13:47:03.722Z,4.23
2023-04-11T13:49:30.604Z,5.63
2023-04-11T13:51:57.411Z,4.53
2023-04-11T13:54:24.352Z,5.37
2023-04-11T13:56:51.051Z,5.87
2023-04-11T13:59:17.912Z,7.47
2023-04-11T14:01:44.718Z,4.67
2023-04-11T14:04:11.977Z,6.20
2023-04-11T14:06:39.637Z,4.83
2023-04-11T14:09:06.399Z,7.53
2023-04-11T14:11:33.492Z,3.80
2023-04-11T14:14:00.194Z,5.37
2023-04-11T14:16:26.928Z,5.83
2023-04-11T14:18:53.628Z,6.03
2023-04-11T14:21:21.084Z,4.33
2023-04-11T14:23:48.625Z,8.60
2023-04-11T14:26:15.440Z,5.73
2023-04-11T14:28:42.148Z,6.67
2023-04-11T14:31:09.648Z,6.10
2023-04-11T14:33:36.696Z,7.17
2023-04-11T14:36:03.547Z,4.07
2023-04-11T14:38:30.731Z,6.67
2023-04-11T14:40:57.563Z,6.23
2023-04-11T14:43:24.271Z,4.57
2023-04-11T14:45:55.564Z,4.90
2023-04-11T14:48:22.315Z,4.97
2023-04-11T14:50:49.015Z,7.80
2023-04-11T14:53:16.646Z,6.43
2023-04-11T14:55:44.650Z,6.70
2023-04-11T14:58:11.516Z,5.90
2023-04-11T15:00:38.221Z,3.00
2023-04-11T15:03:05.081Z,6.40
2023-04-11T15:05:31.995Z,5.03
2023-04-11T15:07:58.763Z,5.93
2023-04-11T15:10:26.065Z,5.60
2023-04-11T15:12:53.274Z,9.20
2023-04-11T15:15:20.034Z,7.07
2023-04-11T15:17:49.286Z,5.27
2023-04-11T15:20:16.850Z,6.87
2023-04-11T15:22:45.626Z,6.83
2023-04-11T15:25:14.861Z,6.93
2023-04-11T15:27:42.582Z,7.33
2023-04-11T15:30:10.425Z,7.80
2023-04-11T15:32:43.296Z,5.37
2023-04-11T15:35:10.637Z,7.77
2023-04-11T15:37:37.376Z,6.93
2023-04-11T15:40:07.794Z,6.60
2023-04-11T15:42:35.544Z,6.40
2023-04-11T15:45:02.807Z,5.50
2023-04-11T15:47:30.238Z,6.67
2023-04-11T15:49:58.964Z,7.77
2023-04-11T15:52:26.330Z,9.20
2023-04-11T15:54:53.318Z,5.67
2023-04-11T15:57:20.079Z,5.13
2023-04-11T15:59:47.228Z,7.07
2023-04-11T16:02:15.189Z,9.93
2023-04-11T16:04:46.212Z,7.80
2023-04-11T16:07:18.184Z,4.30
2023-04-11T16:09:45.168Z,8.60
2023-04-11T16:12:11.906Z,5.30
2023-04-11T16:14:38.698Z,6.57
2023-04-11T16:17:05.449Z,9.10
2023-04-11T16:19:32.271Z,5.83
2023-04-11T16:21:58.953Z,4.90
2023-04-11T16:24:28.044Z,4.97
2023-04-11T16:26:54.712Z,6.07
2023-04-11T16:29:21.566Z,6.97
2023-04-11T16:31:48.503Z,10.63
2023-04-11T16:34:15.279Z,8.23
2023-04-11T16:36:41.983Z,6.00
2023-04-11T16:39:08.765Z,5.83
2023-04-11T16:41:37.742Z,8.87
2023-04-11T16:44:11.585Z,7.67
2023-04-11T16:46:39.586Z,5.83
2023-04-11T16:49:06.547Z,7.37
2023-04-11T16:51:33.508Z,5.53
2023-04-11T16:54:00.408Z,5.30
2023-04-11T16:56:29.044Z,7.33
2023-04-11T16:58:56.117Z,5.77
2023-04-11T17:01:22.961Z,6.83
2023-04-11T17:03:52.273Z,5.07
2023-04-11T17:06:19.388Z,4.63
2023-04-11T17:08:46.105Z,4.03
2023-04-11T17:11:13.502Z,4.47
2023-04-11T17:13:45.569Z,7.73
2023-04-11T17:16:12.456Z,5.47
2023-04-11T17:18:40.017Z,5.33
2023-04-11T17:21:07.019Z,6.37
2023-04-11T17:23:42.644Z,5.40
2023-04-11T17:26:13.725Z,5.93
2023-04-11T17:28:40.884Z,5.90
2023-04-11T17:31:12.982Z,7.07
2023-04-11T17:33:40.431Z,5.10
2023-04-11T17:36:08.132Z,5.77
2023-04-11T17:38:36.518Z,6.90
2023-04-11T17:41:13.351Z,6.90
2023-04-11T17:43:40.999Z,5.47
2023-04-11T17:46:08.900Z,5.47
2023-04-11T17:48:36.599Z,9.10
2023-04-11T17:51:06.865Z,5.30
2023-04-11T17:53:33.978Z,8.70
2023-04-11T17:56:05.989Z,4.77
2023-04-11T17:58:33.537Z,10.03
2023-04-11T18:01:00.265Z,5.33
2023-04-11T18:03:27.368Z,6.97
2023-04-11T18:05:54.857Z,6.53
2023-04-11T18:08:35.469Z,5.03
2023-04-11T18:11:04.318Z,5.27
2023-04-11T18:13:31.664Z,7.50
2023-04-11T18:15:58.709Z,6.03
2023-04-11T18:18:25.582Z,6.97
2023-04-11T18:20:52.244Z,5.73
2023-04-11T18:23:19.014Z,5.67
2023-04-11T18:25:46.018Z,4.70
2023-04-11T18:28:12.740Z,6.07
2023-04-11T18:30:39.563Z,8.17
2023-04-11T18:33:06.493Z,7.63
2023-04-11T18:35:33.368Z,8.00
2023-04-11T18:38:00.256Z,7.30
2023-04-11T18:40:27.618Z,4.90
2023-04-11T18:42:56.259Z,5.73
2023-04-11T18:45:23.991Z,7.30
2023-04-11T18:47:51.183Z,6.43
2023-04-11T18:50:18.926Z,6.87
2023-04-11T18:52:46.689Z,5.77
2023-04-11T18:55:16.329Z,7.87
2023-04-11T18:57:46.342Z,6.57
2023-04-11T19:00:18.399Z,8.87
2023-04-11T19:02:46.064Z,6.30
2023-04-11T19:05:13.665Z,6.00
2023-04-11T19:07:42.288Z,7.63
2023-04-11T19:10:10.768Z,9.00
2023-04-11T19:12:37.787Z,4.30
2023-04-11T19:15:08.202Z,6.00
2023-04-11T19:17:36.479Z,7.80
2023-04-11T19:20:06.815Z,5.17
2023-04-11T19:22:35.880Z,6.80
2023-04-11T19:25:02.709Z,4.40
2023-04-11T19:27:29.667Z,5.67
2023-04-11T19:29:57.088Z,6.17
2023-04-11T19:32:23.901Z,4.40
2023-04-11T19:34:51.279Z,7.70
2023-04-11T19:37:19.451Z,5.03
2023-04-11T19:39:49.239Z,6.93
2023-04-11T19:42:19.033Z,12.77
2023-04-11T19:44:45.939Z,14.97
2023-04-11T19:47:12.707Z,17.27
2023-04-11T19:49:39.428Z,14.30
2023-04-11T19:52:06.337Z,13.87
2023-04-11T19:54:33.513Z,19.27
2023-04-11T19:57:00.668Z,17.50
2023-04-11T19:59:27.404Z,11.00
2023-04-11T20:01:54.402Z,12.33
2023-04-11T20:04:21.367Z,9.33
2023-04-11T20:06:50.675Z,7.47
2023-04-11T20:09:17.494Z,5.50
2023-04-11T20:11:47.084Z,7.20
2023-04-11T20:14:13.902Z,6.13
2023-04-11T20:16:40.770Z,4.73
2023-04-11T20:19:08.268Z,6.40
2023-04-11T20:21:34.964Z,5.60
2023-04-11T20:24:06.257Z,6.13
2023-04-11T20:26:32.951Z,4.97
2023-04-11T20:29:00.069Z,5.57
2023-04-11T20:31:29.696Z,6.03
2023-04-11T20:33:56.986Z,7.07
2023-04-11T20:36:24.011Z,6.00
2023-04-11T20:38:50.919Z,6.93
2023-04-11T20:41:19.221Z,6.00
2023-04-11T20:43:45.958Z,6.33
2023-04-11T20:46:13.611Z,6.60
2023-04-11T20:48:42.003Z,7.83
2023-04-11T20:51:09.064Z,6.40
2023-04-11T20:53:39.096Z,9.10
2023-04-11T20:56:06.175Z,8.03
2023-04-11T20:58:32.998Z,5.73
2023-04-11T21:00:59.809Z,8.57
2023-04-11T21:03:31.030Z,8.50
2023-04-11T21:05:59.016Z,7.97
2023-04-11T21:08:25.711Z,7.03
2023-04-11T21:10:52.425Z,6.67
2023-04-11T21:13:21.575Z,7.00
2023-04-11T21:15:48.337Z,7.07
2023-04-11T21:18:15.388Z,7.13
2023-04-11T21:20:42.234Z,7.73
2023-04-11T21:23:08.987Z,8.07
2023-04-11T21:25:36.932Z,6.10
2023-04-11T21:28:03.756Z,7.37
2023-04-11T21:30:30.711Z,8.57
2023-04-11T21:32:57.443Z,4.93
2023-04-11T21:35:24.332Z,4.97
2023-04-11T21:37:51.158Z,5.97
2023-04-11T21:40:17.934Z,6.97
2023-04-11T21:42:44.629Z,6.87
2023-04-11T21:45:11.439Z,7.37
2023-04-11T21:47:38.361Z,5.83
2023-04-11T21:50:05.629Z,9.13
2023-04-11T21:52:32.303Z,8.60
2023-04-11T21:54:58.984Z,5.60
2023-04-11T21:57:25.962Z,5.43
2023-04-11T21:59:52.645Z,7.80
2023-04-11T22:02:19.599Z,7.00
2023-04-11T22:05:04.020Z,6.07
2023-04-11T22:07:38.444Z,6.23
2023-04-11T22:10:09.504Z,5.97
2023-04-11T22:12:36.659Z,7.00
2023-04-11T22:15:05.247Z,6.97
2023-04-11T22:17:32.378Z,5.93
2023-04-11T22:19:59.256Z,8.07
2023-04-11T22:22:32.817Z,5.37
2023-04-11T22:25:00.027Z,4.93
2023-04-11T22:27:27.293Z,4.77
2023-04-11T22:29:56.225Z,7.70
2023-04-11T22:32:23.636Z,7.30
2023-04-11T22:34:50.585Z,5.50
2023-04-11T22:37:17.428Z,5.90
2023-04-11T22:39:44.208Z,3.60
2023-04-11T22:42:11.612Z,6.77
2023-04-11T22:44:38.410Z,7.23
2023-04-11T22:47:12.078Z,5.87
2023-04-11T22:49:41.867Z,4.47
2023-04-11T22:52:10.654Z,7.10
2023-04-11T22:54:40.930Z,5.20
2023-04-11T22:57:07.640Z,6.43
2023-04-11T22:59:34.286Z,4.27
2023-04-11T23:02:02.068Z,5.27
2023-04-11T23:04:30.999Z,5.83
2023-04-11T23:06:58.141Z,5.43
2023-04-11T23:09:24.930Z,4.37
2023-04-11T23:11:52.189Z,4.93
2023-04-11T23:14:20.835Z,3.87
2023-04-11T23:16:47.944Z,6.03
2023-04-11T23:19:14.737Z,6.63
2023-04-11T23:21:41.530Z,6.63
2023-04-11T23:24:09.096Z,5.50
2023-04-11T23:26:36.130Z,7.90
2023-04-11T23:29:03.568Z,5.10
2023-04-11T23:31:31.497Z,3.60
2023-04-11T23:34:02.434Z,4.90
2023-04-11T23:36:29.399Z,4.10
2023-04-11T23:38:56.671Z,7.10
2023-04-11T23:41:23.980Z,4.80
2023-04-11T23:43:51.165Z,5.73
2023-04-11T23:46:18.262Z,8.23
2023-04-11T23:48:46.874Z,3.77
2023-04-11T23:51:13.956Z,5.70
2023-04-11T23:53:41.145Z,6.70
2023-04-11T23:56:08.982Z,4.23
2023-04-11T23:58:35.955Z,3.70
